Saturday, January 20, 2018, 8:18 AM EST
Back to Local

KWST, Westerly State Airport

Location: Westerly, RI, United States Lat: 41.35
Local Time: 8:18 AM EST (13:18 GMT) Lon: -71.8
Time Zone: US/Eastern Elev: 82 ft

Show me the last for .
Show Decoded

2018-01-20 07:53 METAR KWST 201253Z AUTO 23013G23KT 10SM CLR 04/M03 A2980 RMK AO2 SLP091
                 T00441033 =
2018-01-20 06:53 METAR KWST 201153Z AUTO 23013G21KT 10SM CLR 03/M03 A2981 RMK AO2 SLP093
                 T00331028 10033 20017 56019 =
2018-01-20 05:53 METAR KWST 201053Z AUTO 22009G16KT 10SM CLR 03/M02 A2982 RMK AO2 SLP098
                 T00331022 =
2018-01-20 04:53 METAR KWST 200953Z AUTO 23007KT 10SM CLR 03/M02 A2984 RMK AO2 SLP105 T00281022 =
2018-01-20 03:53 METAR KWST 200853Z AUTO 24007KT 10SM CLR 03/M03 A2986 RMK AO2 SLP112 T00331028
                 56015 =
2018-01-20 01:53 METAR KWST 200653Z AUTO 23007KT 9SM CLR 02/M03 A2989 RMK AO2 SLP122 T00221028 =
2018-01-20 00:53 METAR KWST 200553Z AUTO 22005KT 9SM CLR 02/M03 A2991 RMK AO2 SLP127 T00171033
                 10017 21033 56026 =
2018-01-19 23:53 METAR KWST 200453Z AUTO 21003KT 8SM CLR M02/M05 A2993 RMK AO2 SLP137 T10171050
                 400171061 =
2018-01-19 22:53 METAR KWST 200353Z AUTO 00000KT 7SM CLR M02/M04 A2995 RMK AO2 SLP143 T10221044 =
2018-01-19 21:53 METAR KWST 200253Z AUTO 00000KT 9SM CLR 00/M04 A2998 RMK AO2 SLP153 T00001044
                 50001 =
2018-01-19 20:53 METAR KWST 200153Z AUTO 25003KT 9SM CLR 00/M04 A2999 RMK AO2 SLP157 T00001044 =
2018-01-19 19:53 METAR KWST 200053Z AUTO 26003KT 9SM CLR 00/M05 A2999 RMK AO2 SLP155 T00001050 =
2018-01-19 18:53 METAR KWST 192353Z AUTO 25004KT 10SM CLR 00/M05 A2998 RMK AO2 SLP152 T00001050
                 10017 20000 51005 =
2018-01-19 17:53 METAR KWST 192253Z AUTO 25004KT 10SM CLR 00/M05 A2998 RMK AO2 SLP152 T00001050 =
2018-01-19 16:53 METAR KWST 192153Z AUTO 25007KT 9SM CLR 01/M05 A2998 RMK AO2 SLP152 T00061050 =
2018-01-19 15:53 METAR KWST 192053Z AUTO 23008KT 9SM CLR 01/M05 A2997 RMK AO2 SLP147 T00111050
                 53001 =
2018-01-19 14:53 METAR KWST 191953Z AUTO 23009G15KT 9SM CLR 01/M05 A2996 RMK AO2 SLP144 T00111050
                 =
2018-01-19 13:53 METAR KWST 191853Z AUTO 24012G18KT 9SM CLR 01/M06 A2995 RMK AO2 SLP142 T00111056
                 =
2018-01-19 12:53 METAR KWST 191753Z AUTO 22008KT 8SM CLR 01/M05 A2996 RMK AO2 SLP146 T00111050
                 10011 21044 58027 =
2018-01-19 11:53 METAR KWST 191653Z AUTO 23008KT 9SM CLR 01/M07 A2999 RMK AO2 SLP156 T00061067 =
2018-01-19 10:53 METAR KWST 191553Z AUTO 22008KT 9SM CLR 00/M07 A3003 RMK AO2 SLP168 T00001072 =
2018-01-19 09:53 METAR KWST 191453Z AUTO 26007KT 230V320 9SM CLR M01/M09 A3004 RMK AO2 SLP174
                 T10111089 51006 =
2018-01-19 08:53 METAR KWST 191353Z AUTO VRB04KT 9SM CLR M02/M09 A3004 RMK AO2 SLP172 T10221089 =

Support USWX by starting your Amazon purchase here.